Time;durP1;ratioP1;P1;durP2;ratioP2;P2;SDS_P1;SDS_P2;PMS_P1;PMS_P2;Temp;Humidity;BMP_temperature;BMP_pressure;BME280_temperature;BME280_humidity;BME280_pressure;Samples;Min_cycle;Max_cycle;Signal;HPM_P1;HPM_P2
2021/12/04 00:02:00;;;;;;;7.38;3.72;;;;;;;2.51;100.00;94465.91;5067636;28;20460;-73
2021/12/04 00:04:33;;;;;;;8.70;4.63;;;;;;;2.43;100.00;94454.78;5067943;28;20047;-73
2021/12/04 00:07:02;;;;;;;8.47;4.27;;;;;;;2.29;100.00;94453.91;5067825;28;20044;-72
2021/12/04 00:09:30;;;;;;;3.90;2.78;;;;;;;2.33;100.00;94449.19;5074630;28;20040;-73
2021/12/04 00:12:05;;;;;;;5.95;3.72;;;;;;;2.25;100.00;94457.03;5071369;28;20052;-73
2021/12/04 00:14:35;;;;;;;6.88;4.40;;;;;;;2.35;100.00;94462.63;5080121;28;20094;-72
2021/12/04 00:17:03;;;;;;;7.75;4.47;;;;;;;2.41;100.00;94456.75;5071730;28;20131;-73
2021/12/04 00:19:30;;;;;;;5.35;3.20;;;;;;;2.36;100.00;94450.56;5075010;28;20560;-72
2021/12/04 00:21:58;;;;;;;4.47;3.80;;;;;;;2.31;100.00;94451.16;5073949;28;20043;-73
2021/12/04 00:24:26;;;;;;;5.65;3.50;;;;;;;2.32;100.00;94468.13;5075215;28;20504;-73
2021/12/04 00:26:54;;;;;;;5.50;3.55;;;;;;;2.31;100.00;94476.84;5072311;28;20558;-73
2021/12/04 00:29:23;;;;;;;5.43;3.00;;;;;;;2.20;100.00;94459.38;5072523;28;20033;-73
2021/12/04 00:31:56;;;;;;;4.82;3.25;;;;;;;2.25;100.00;94451.88;5074919;28;20127;-73
2021/12/04 00:34:26;;;;;;;5.95;3.35;;;;;;;2.16;100.00;94463.28;5073217;28;20101;-73
2021/12/04 00:50:48;;;;;;;3.65;2.60;;;;;;;2.12;100.00;94464.66;5064854;28;20045;-73
2021/12/04 00:53:15;;;;;;;4.53;2.70;;;;;;;2.16;100.00;94458.16;5075073;28;20425;-73
2021/12/04 00:55:42;;;;;;;4.43;2.58;;;;;;;2.15;100.00;94447.09;5074559;28;20111;-73
2021/12/04 00:58:09;;;;;;;4.80;3.30;;;;;;;2.16;100.00;94447.88;5074272;28;20048;-72
2021/12/04 01:00:36;;;;;;;7.47;4.07;;;;;;;2.21;100.00;94448.09;5072124;28;20044;-73
2021/12/04 01:03:03;;;;;;;6.45;4.00;;;;;;;2.18;100.00;94435.63;5070023;28;20045;-73
2021/12/04 01:05:30;;;;;;;4.25;2.92;;;;;;;2.22;100.00;94447.94;5069767;28;20093;-73
2021/12/04 01:07:57;;;;;;;4.10;2.92;;;;;;;2.20;100.00;94433.69;5072502;28;20040;-73
2021/12/04 01:10:23;;;;;;;5.47;2.85;;;;;;;2.26;100.00;94440.63;5069170;28;20518;-73
2021/12/04 01:12:50;;;;;;;5.45;3.30;;;;;;;2.17;100.00;94426.34;5067109;28;20506;-73
2021/12/04 01:15:17;;;;;;;4.03;2.90;;;;;;;2.17;100.00;94414.28;5067493;28;20040;-72
2021/12/04 01:17:44;;;;;;;4.70;2.92;;;;;;;2.10;100.00;94403.97;5070920;28;20485;-73
2021/12/04 01:20:11;;;;;;;6.97;4.10;;;;;;;2.20;100.00;94403.66;5068923;28;20535;-73
2021/12/04 01:22:39;;;;;;;6.50;3.50;;;;;;;2.25;100.00;94390.22;5074410;28;20036;-72
2021/12/04 01:25:07;;;;;;;10.00;3.58;;;;;;;2.26;100.00;94391.81;5070842;28;20556;-73
2021/12/04 01:27:36;;;;;;;6.50;3.85;;;;;;;2.23;100.00;94381.91;5063627;28;20051;-72
2021/12/04 01:30:06;;;;;;;5.63;3.65;;;;;;;2.25;100.00;94385.06;5070317;28;20042;-73
2021/12/04 01:32:33;;;;;;;8.10;3.85;;;;;;;2.29;100.00;94391.44;5065157;28;21705;-73
2021/12/04 01:35:00;;;;;;;7.03;3.45;;;;;;;2.19;100.00;94370.44;5072170;28;20058;-73
2021/12/04 01:37:26;;;;;;;10.63;4.05;;;;;;;2.24;100.00;94388.63;5065157;28;20040;-73
2021/12/04 01:39:53;;;;;;;6.68;3.15;;;;;;;2.29;100.00;94386.31;5069682;28;20517;-73
2021/12/04 01:42:21;;;;;;;6.07;3.60;;;;;;;2.22;100.00;94388.81;5073246;28;20036;-73
2021/12/04 01:44:49;;;;;;;7.05;3.70;;;;;;;2.25;100.00;94400.50;5068223;28;20054;-72
2021/12/04 01:47:21;;;;;;;8.88;5.30;;;;;;;2.22;100.00;94395.75;5064927;28;20051;-73
2021/12/04 01:49:51;;;;;;;5.13;3.47;;;;;;;2.00;100.00;94382.97;5066581;28;20044;-73
2021/12/04 01:52:18;;;;;;;5.03;3.05;;;;;;;2.03;100.00;94387.72;5070526;28;20041;-73
2021/12/04 01:54:46;;;;;;;7.35;4.05;;;;;;;2.03;100.00;94386.94;5067469;28;20052;-73
2021/12/04 01:57:16;;;;;;;4.68;2.67;;;;;;;1.98;100.00;94390.09;5065784;28;20050;-73
2021/12/04 01:59:44;;;;;;;7.82;5.35;;;;;;;1.96;100.00;94396.38;5071142;28;20059;-73
2021/12/04 02:02:11;;;;;;;8.07;4.18;;;;;;;1.78;100.00;94394.28;5063270;28;20063;-74
2021/12/04 02:04:38;;;;;;;7.75;4.15;;;;;;;1.78;100.00;94399.41;5062538;28;20159;-72
2021/12/04 02:07:07;;;;;;;8.23;3.80;;;;;;;1.85;100.00;94401.03;5067487;28;20063;-73
2021/12/04 02:09:36;;;;;;;7.35;4.05;;;;;;;1.83;100.00;94412.50;5067229;28;20568;-73
2021/12/04 02:12:06;;;;;;;6.40;3.88;;;;;;;1.90;100.00;94424.38;5065330;28;20502;-73
2021/12/04 02:14:35;;;;;;;9.55;4.30;;;;;;;1.83;100.00;94430.47;5066320;28;20047;-72
2021/12/04 02:17:03;;;;;;;8.13;4.93;;;;;;;1.89;100.00;94427.13;5069233;28;20452;-73
2021/12/04 02:19:30;;;;;;;5.72;3.67;;;;;;;1.73;100.00;94425.66;5069789;28;20037;-73
2021/12/04 02:21:58;;;;;;;11.68;4.43;;;;;;;1.80;100.00;94418.81;5076553;28;20048;-73
2021/12/04 02:24:25;;;;;;;11.55;4.13;;;;;;;1.86;100.00;94409.56;5069565;28;20041;-73
2021/12/04 02:26:52;;;;;;;9.85;4.60;;;;;;;1.80;100.00;94407.72;5071290;28;20043;-73
2021/12/04 02:29:19;;;;;;;7.95;4.97;;;;;;;1.77;100.00;94403.75;5069494;28;20040;-73
2021/12/04 02:31:52;;;;;;;7.57;4.35;;;;;;;1.82;100.00;94396.28;5063933;28;20048;-73
2021/12/04 02:34:30;;;;;;;10.02;4.47;;;;;;;1.77;100.00;94392.72;5069885;28;20044;-73
2021/12/04 02:36:58;;;;;;;8.68;4.78;;;;;;;1.86;100.00;94401.84;5071385;28;20119;-73
2021/12/04 02:39:32;;;;;;;10.65;5.03;;;;;;;1.92;100.00;94401.09;5064574;28;20037;-73
2021/12/04 02:42:00;;;;;;;6.88;4.25;;;;;;;1.87;100.00;94406.00;5066225;28;20509;-72
2021/12/04 02:44:35;;;;;;;7.65;4.90;;;;;;;1.89;100.00;94406.59;5068724;28;20082;-73
2021/12/04 02:47:03;;;;;;;7.70;4.68;;;;;;;1.92;100.00;94395.94;5065495;28;20045;-73
2021/12/04 02:49:30;;;;;;;9.98;5.22;;;;;;;1.92;100.00;94393.38;5066981;28;20522;-74
2021/12/04 02:52:04;;;;;;;12.15;6.00;;;;;;;1.98;100.00;94404.69;5065942;28;20473;-73
2021/12/04 02:54:32;;;;;;;;;;;;;;;2.00;100.00;94385.53;5075956;28;20041;-73
2021/12/04 02:56:59;;;;;;;8.50;4.68;;;;;;;1.82;100.00;94364.66;5073093;28;20309;-73
2021/12/04 02:59:26;;;;;;;8.35;4.50;;;;;;;1.91;100.00;94378.97;5070502;28;20406;-73
2021/12/04 03:01:55;;;;;;;10.82;5.55;;;;;;;1.80;100.00;94374.34;5067409;28;20048;-73
2021/12/04 03:04:24;;;;;;;10.32;5.65;;;;;;;1.75;100.00;94363.81;5068647;28;20119;-73
2021/12/04 03:06:51;;;;;;;9.02;4.78;;;;;;;1.79;100.00;94380.47;5071859;28;20049;-73
2021/12/04 03:09:19;;;;;;;10.02;5.90;;;;;;;1.79;100.00;94381.25;5066206;28;20044;-73
2021/12/04 03:11:46;;;;;;;10.93;5.53;;;;;;;1.70;100.00;94362.63;5071990;28;20078;-73
2021/12/04 03:14:14;;;;;;;11.18;5.57;;;;;;;1.83;100.00;94376.53;5074197;28;20123;-73
2021/12/04 03:16:42;;;;;;;14.10;6.30;;;;;;;1.76;100.00;94375.69;5068508;28;20060;-73
2021/12/04 03:19:09;;;;;;;11.00;6.07;;;;;;;1.79;100.00;94370.19;5074441;28;20044;-73
2021/12/04 03:21:38;;;;;;;13.65;7.07;;;;;;;1.85;100.00;94369.44;5067767;28;20418;-73
2021/12/04 03:24:12;;;;;;;11.10;5.60;;;;;;;1.85;100.00;94364.28;5064981;28;20036;-72
2021/12/04 03:26:39;;;;;;;10.48;5.40;;;;;;;1.76;100.00;94360.28;5068908;28;20044;-73
2021/12/04 03:29:11;;;;;;;12.30;5.78;;;;;;;1.76;100.00;94370.56;5074044;28;20404;-73
2021/12/04 03:31:57;;;;;;;8.48;4.88;;;;;;;1.78;100.00;94378.88;5070651;28;20453;-72
2021/12/04 03:40:33;;;;;;;12.88;6.13;;;;;;;1.67;100.00;94386.09;5067491;28;20098;-73
2021/12/04 03:42:57;;;;;;;11.63;5.28;;;;;;;1.65;100.00;94380.34;5071272;28;20056;-73
2021/12/04 03:45:24;;;;;;;11.43;6.45;;;;;;;1.56;100.00;94378.91;5076284;28;20044;-72
2021/12/04 03:47:53;;;;;;;13.32;6.22;;;;;;;1.53;100.00;94377.53;5069441;28;20037;-73
2021/12/04 03:50:20;;;;;;;11.88;6.63;;;;;;;1.52;100.00;94390.53;5078024;28;20539;-73
2021/12/04 03:52:46;;;;;;;14.70;7.25;;;;;;;1.43;100.00;94386.50;5073413;28;20473;-73
2021/12/04 03:55:14;;;;;;;12.23;7.00;;;;;;;1.46;100.00;94402.34;5067531;28;20582;-72
2021/12/04 03:57:49;;;;;;;12.85;6.05;;;;;;;1.41;100.00;94401.31;5076688;28;20469;-72
2021/12/04 04:00:18;;;;;;;12.98;6.55;;;;;;;1.36;100.00;94395.94;5068142;28;20107;-73
2021/12/04 04:02:46;;;;;;;15.35;7.35;;;;;;;1.29;100.00;94401.78;5073208;28;20036;-73
2021/12/04 04:05:14;;;;;;;18.65;7.65;;;;;;;1.34;100.00;94399.47;5072046;28;20048;-72
2021/12/04 04:07:41;;;;;;;11.27;5.85;;;;;;;1.39;100.00;94395.53;5073760;28;20050;-72
2021/12/04 04:10:08;;;;;;;13.30;5.93;;;;;;;1.29;100.00;94388.94;5073337;28;20032;-73
2021/12/04 04:12:36;;;;;;;18.27;7.40;;;;;;;1.36;100.00;94390.81;5070726;28;20051;-72
2021/12/04 04:15:03;;;;;;;12.02;6.75;;;;;;;1.44;100.00;94388.09;5072379;28;20049;-72
2021/12/04 04:17:32;;;;;;;12.15;7.03;;;;;;;1.28;100.00;94379.69;5069121;28;20055;-72
2021/12/04 04:19:59;;;;;;;14.63;7.40;;;;;;;1.41;100.00;94398.75;5074551;28;20044;-72
2021/12/04 04:22:25;;;;;;;20.25;7.93;;;;;;;1.42;100.00;94406.22;5074829;28;20043;-72
2021/12/04 04:24:52;;;;;;;12.40;6.90;;;;;;;1.36;100.00;94406.19;5073002;28;20131;-72
2021/12/04 04:27:19;;;;;;;11.30;7.13;;;;;;;1.46;100.00;94404.91;5065947;28;20498;-72
2021/12/04 04:29:46;;;;;;;11.45;7.10;;;;;;;1.46;100.00;94407.47;5076215;28;20070;-72
2021/12/04 04:32:13;;;;;;;17.10;7.07;;;;;;;1.46;100.00;94422.06;5066070;28;20490;-72
2021/12/04 04:34:40;;;;;;;12.48;6.15;;;;;;;1.57;100.00;94418.19;5071613;28;20049;-73
2021/12/04 04:37:23;;;;;;;12.40;6.05;;;;;;;1.58;100.00;94418.00;5073055;28;20059;-72
2021/12/04 05:15:12;;;;;;;18.27;8.77;;;;;;;1.40;100.00;94415.88;5072269;28;20048;-72
2021/12/04 05:20:13;;;;;;;14.90;7.28;;;;;;;1.50;100.00;94400.19;5071724;28;20036;-72
2021/12/04 05:22:40;;;;;;;12.85;6.60;;;;;;;1.56;100.00;94409.72;5072726;28;20040;-72
2021/12/04 05:25:08;;;;;;;24.85;11.35;;;;;;;1.58;100.00;94400.03;5070125;28;20433;-73
2021/12/04 05:27:35;;;;;;;11.60;6.53;;;;;;;1.48;100.00;94399.59;5072949;28;20089;-73
2021/12/04 05:30:04;;;;;;;8.73;5.40;;;;;;;1.46;100.00;94401.53;5073931;28;20429;-73
2021/12/04 05:32:32;;;;;;;9.93;5.75;;;;;;;1.46;100.00;94396.38;5070251;28;20630;-72
2021/12/04 05:34:59;;;;;;;13.95;7.50;;;;;;;1.50;100.00;94397.63;5077611;28;20490;-72
2021/12/04 05:37:25;;;;;;;12.25;6.97;;;;;;;1.46;100.00;94383.56;5073621;28;20543;-72
2021/12/04 05:39:52;;;;;;;15.00;9.25;;;;;;;1.48;100.00;94389.31;5067302;28;20550;-73
2021/12/04 05:42:19;;;;;;;13.13;6.05;;;;;;;1.65;100.00;94413.72;5067632;28;20435;-72
2021/12/04 05:44:46;;;;;;;13.52;6.07;;;;;;;1.55;100.00;94418.41;5069512;28;20054;-72
2021/12/04 05:47:22;;;;;;;14.70;8.48;;;;;;;1.45;100.00;94397.38;5071686;28;20425;-73
2021/12/04 05:50:35;;;;;;;12.30;6.78;;;;;;;1.60;100.00;94408.34;5072722;28;20043;-72
2021/12/04 05:55:28;;;;;;;14.77;7.40;;;;;;;1.47;100.00;94400.56;5073784;28;20039;-72
2021/12/04 05:57:55;;;;;;;10.48;6.70;;;;;;;1.54;100.00;94424.50;5072428;28;22992;-72
2021/12/04 06:00:25;;;;;;;9.45;5.25;;;;;;;1.44;100.00;94426.59;5069856;28;20040;-72
2021/12/04 06:02:52;;;;;;;9.00;5.32;;;;;;;1.34;100.00;94417.41;5070368;28;20059;-72
2021/12/04 06:05:19;;;;;;;11.30;6.10;;;;;;;1.43;100.00;94417.31;5070487;28;20036;-73
2021/12/04 06:07:46;;;;;;;19.88;8.30;;;;;;;1.33;100.00;94408.16;5069522;28;20425;-72
2021/12/04 06:10:13;;;;;;;10.82;5.80;;;;;;;1.33;100.00;94423.56;5071552;28;20044;-72
2021/12/04 06:12:40;;;;;;;12.73;6.25;;;;;;;1.31;100.00;94420.38;5068655;28;20040;-72
2021/12/04 06:15:07;;;;;;;14.80;7.25;;;;;;;1.39;100.00;94421.19;5075002;28;20562;-72
2021/12/04 06:17:34;;;;;;;10.57;6.07;;;;;;;1.40;100.00;94428.72;5071552;28;20050;-72
2021/12/04 06:22:47;;;;;;;18.63;8.05;;;;;;;1.36;100.00;94437.00;5068724;28;20067;-73
2021/12/04 06:25:24;;;;;;;14.90;7.35;;;;;;;1.29;100.00;94437.69;5067888;28;20050;-73
2021/12/04 06:27:51;;;;;;;21.00;9.40;;;;;;;1.48;100.00;94450.91;5075615;28;20044;-72
2021/12/04 06:30:19;;;;;;;15.65;8.27;;;;;;;1.51;100.00;94455.66;5066100;28;20593;-73
2021/12/04 06:32:48;;;;;;;15.68;7.60;;;;;;;1.47;100.00;94449.31;5068401;28;21558;-73
2021/12/04 06:35:18;;;;;;;19.55;9.90;;;;;;;1.55;100.00;94456.91;5068077;28;20079;-73
2021/12/04 06:37:48;;;;;;;17.08;8.18;;;;;;;1.56;100.00;94448.22;5075923;28;20044;-72
2021/12/04 06:40:16;;;;;;;17.15;9.10;;;;;;;1.59;100.00;94462.47;5066173;28;20040;-73
2021/12/04 06:42:44;;;;;;;22.13;10.77;;;;;;;1.50;100.00;94459.22;5067777;28;20040;-73
2021/12/04 06:45:13;;;;;;;20.17;9.85;;;;;;;1.52;100.00;94477.81;5068239;28;20055;-73
2021/12/04 06:47:46;;;;;;;33.83;13.57;;;;;;;1.49;100.00;94455.06;5071452;28;20048;-73
2021/12/04 06:53:08;;;;;;;20.48;11.55;;;;;;;1.69;100.00;94448.34;5068162;28;20064;-73
2021/12/04 06:55:38;;;;;;;14.80;8.15;;;;;;;1.83;100.00;94474.13;5067915;28;20509;-72
2021/12/04 06:58:05;;;;;;;16.10;9.63;;;;;;;1.83;100.00;94468.97;5071392;28;20036;-73
2021/12/04 07:00:33;;;;;;;19.30;10.60;;;;;;;1.74;100.00;94449.56;5071265;28;20045;-72
2021/12/04 07:03:00;;;;;;;20.00;10.98;;;;;;;1.74;100.00;94460.63;5073765;28;20492;-72
2021/12/04 07:05:27;;;;;;;13.95;7.72;;;;;;;1.61;100.00;94476.69;5071195;28;20045;-72
2021/12/04 07:07:54;;;;;;;23.50;10.27;;;;;;;1.69;100.00;94474.03;5069443;28;20045;-72
2021/12/04 07:10:21;;;;;;;17.85;10.52;;;;;;;1.78;100.00;94466.97;5068392;28;20043;-73
2021/12/04 07:12:48;;;;;;;20.55;11.02;;;;;;;1.89;100.00;94473.38;5066172;28;20132;-73
2021/12/04 07:15:15;;;;;;;15.73;9.45;;;;;;;1.90;100.00;94469.81;5070174;28;20077;-73
2021/12/04 07:17:42;;;;;;;22.45;11.25;;;;;;;1.94;100.00;94481.31;5075478;28;20048;-73
2021/12/04 07:20:09;;;;;;;21.40;10.35;;;;;;;1.94;100.00;94471.03;5079056;28;20040;-73
2021/12/04 07:22:37;;;;;;;16.50;9.15;;;;;;;1.80;100.00;94464.22;5066769;28;20063;-73
2021/12/04 07:25:04;;;;;;;19.73;9.35;;;;;;;1.98;100.00;94472.28;5071204;28;20052;-72
2021/12/04 07:27:32;;;;;;;20.52;10.10;;;;;;;1.97;100.00;94470.69;5078764;28;20401;-72
2021/12/04 07:30:00;;;;;;;23.38;9.27;;;;;;;2.04;100.00;94475.88;5071138;28;20036;-73
2021/12/04 07:32:27;;;;;;;18.27;9.32;;;;;;;1.92;100.00;94462.72;5071366;28;20043;-73
2021/12/04 07:34:54;;;;;;;24.23;11.32;;;;;;;2.04;100.00;94466.38;5069946;28;20043;-72
2021/12/04 07:37:22;;;;;;;19.35;9.68;;;;;;;2.09;100.00;94471.75;5073183;28;20041;-73
2021/12/04 07:39:51;;;;;;;19.48;10.32;;;;;;;2.26;100.00;94474.03;5070724;28;20108;-73
2021/12/04 07:42:18;;;;;;;20.33;8.93;;;;;;;2.38;100.00;94472.53;5074124;28;20044;-74
2021/12/04 07:44:45;;;;;;;16.98;8.38;;;;;;;2.46;100.00;94469.81;5076065;28;20067;-75
2021/12/04 07:47:12;;;;;;;22.30;11.02;;;;;;;2.56;100.00;94464.34;5071411;28;20068;-75
2021/12/04 07:49:38;;;;;;;24.13;11.95;;;;;;;2.38;100.00;94449.41;5074043;28;20044;-74
2021/12/04 07:52:07;;;;;;;19.33;10.10;;;;;;;2.51;100.00;94453.81;5069421;28;20521;-74
2021/12/04 07:54:35;;;;;;;28.13;11.98;;;;;;;2.58;100.00;94452.09;5080093;28;20040;-74
2021/12/04 07:57:03;;;;;;;17.98;9.43;;;;;;;2.36;100.00;94438.53;5070188;28;20041;-76
2021/12/04 07:59:30;;;;;;;14.23;8.45;;;;;;;2.44;100.00;94440.94;5075640;28;20032;-77
2021/12/04 08:01:57;;;;;;;18.38;9.68;;;;;;;2.41;100.00;94443.91;5067659;28;20047;-76
2021/12/04 08:04:25;;;;;;;18.02;10.90;;;;;;;2.51;100.00;94437.63;5070861;28;20043;-76
2021/12/04 08:06:53;;;;;;;21.27;10.07;;;;;;;2.48;100.00;94416.44;5078431;28;20745;-77
2021/12/04 08:09:21;;;;;;;25.80;10.07;;;;;;;2.76;100.00;94427.66;5077315;28;20046;-77
2021/12/04 08:11:50;;;;;;;22.05;10.27;;;;;;;2.95;100.00;94410.69;5070395;28;20595;-77
2021/12/04 08:14:18;;;;;;;19.38;7.95;;;;;;;3.27;100.00;94421.25;5071702;28;20050;-77
2021/12/04 08:16:47;;;;;;;28.55;13.27;;;;;;;3.45;100.00;94418.91;5071874;28;20037;-75
2021/12/04 08:19:14;;;;;;;19.15;9.30;;;;;;;3.50;100.00;94408.81;5063198;28;21772;-75
2021/12/04 08:21:41;;;;;;;19.98;9.77;;;;;;;3.56;100.00;94428.59;5065368;28;20055;-74
2021/12/04 08:24:09;;;;;;;18.88;8.98;;;;;;;3.64;100.00;94418.13;5068787;28;20048;-74
2021/12/04 08:26:38;;;;;;;19.25;10.95;;;;;;;3.91;100.00;94431.00;5069001;28;20452;-75
2021/12/04 08:29:06;;;;;;;17.13;9.13;;;;;;;4.12;100.00;94437.72;5075017;28;20044;-75
2021/12/04 08:31:34;;;;;;;26.02;13.38;;;;;;;4.18;100.00;94438.72;5077783;28;20063;-75
2021/12/04 08:34:01;;;;;;;23.73;10.35;;;;;;;4.28;100.00;94435.72;5070476;28;20120;-75
2021/12/04 08:36:28;;;;;;;18.55;9.18;;;;;;;4.28;100.00;94436.50;5070940;28;20044;-75
2021/12/04 08:38:56;;;;;;;18.13;9.23;;;;;;;4.43;100.00;94427.75;5074540;28;20124;-75
2021/12/04 08:41:23;;;;;;;19.15;9.63;;;;;;;4.26;100.00;94428.19;5074070;28;20071;-76
2021/12/04 08:43:52;;;;;;;20.55;8.25;;;;;;;4.17;100.00;94425.03;5070164;28;20040;-76
2021/12/04 08:46:20;;;;;;;15.55;9.40;;;;;;;4.31;100.00;94428.38;5074755;28;20060;-76
2021/12/04 08:48:50;;;;;;;18.60;8.80;;;;;;;4.42;100.00;94421.03;5070467;28;20047;-77
2021/12/04 08:51:21;;;;;;;22.42;9.40;;;;;;;4.55;100.00;94402.94;5072273;28;20532;-76
2021/12/04 08:53:50;;;;;;;14.38;7.22;;;;;;;4.72;100.00;94422.13;5080191;28;20059;-76
2021/12/04 08:56:18;;;;;;;17.05;8.32;;;;;;;4.78;100.00;94426.47;5069967;28;20101;-74
2021/12/04 08:58:45;;;;;;;16.02;7.07;;;;;;;4.74;100.00;94414.97;5068719;28;20401;-74
2021/12/04 09:01:22;;;;;;;13.60;8.25;;;;;;;4.88;100.00;94420.88;5070151;28;20033;-76
2021/12/04 09:03:54;;;;;;;10.95;6.35;;;;;;;4.89;100.00;94416.50;5074100;28;20056;-75
2021/12/04 09:06:21;;;;;;;12.70;6.13;;;;;;;4.91;98.38;94409.34;5073728;28;20421;-75
2021/12/04 09:08:48;;;;;;;19.80;6.43;;;;;;;4.96;100.00;94406.94;5077911;28;20127;-77
2021/12/04 09:11:27;;;;;;;11.32;6.32;;;;;;;5.11;100.00;94399.72;5072652;28;20115;-79
2021/12/04 09:13:55;;;;;;;14.90;8.02;;;;;;;5.18;99.94;94389.34;5071619;28;20135;-77
2021/12/04 09:16:23;;;;;;;13.23;6.95;;;;;;;5.42;100.00;94411.06;5074120;28;20040;-75
2021/12/04 09:18:51;;;;;;;13.73;7.18;;;;;;;5.49;98.15;94396.31;5070588;28;20044;-77
2021/12/04 09:21:18;;;;;;;17.30;8.65;;;;;;;5.50;97.07;94387.53;5074829;28;20119;-82
2021/12/04 09:23:53;;;;;;;15.15;7.43;;;;;;;5.44;98.90;94403.88;5076305;28;20123;-79
2021/12/04 09:27:00;;;;;;;;;;;;;;;5.69;97.78;94414.25;5073961;28;20055;-74
2021/12/04 09:34:29;;;;;;;17.05;7.93;;;;;;;6.06;96.31;94411.78;5068558;28;20416;-75
2021/12/04 09:59:43;;;;;;;13.05;7.82;;;;;;;5.50;97.71;94410.78;5075957;28;20490;-76
2021/12/04 10:34:38;;;;;;;23.65;11.57;;;;;;;4.41;100.00;94389.28;5068793;28;20071;-77
2021/12/04 10:37:05;;;;;;;22.23;11.70;;;;;;;4.40;100.00;94388.50;5069608;28;20044;-77
2021/12/04 10:39:33;;;;;;;22.08;11.88;;;;;;;4.22;100.00;94360.00;5075914;28;20044;-75
2021/12/04 10:42:03;;;;;;;24.10;11.40;;;;;;;4.35;100.00;94365.09;5073125;28;20033;-76
2021/12/04 10:44:32;;;;;;;23.60;11.80;;;;;;;4.55;100.00;94364.25;5070812;28;20040;-76
2021/12/04 10:47:11;;;;;;;19.45;10.77;;;;;;;4.74;100.00;94368.53;5077150;28;20039;-78
2021/12/04 10:55:22;;;;;;;20.65;10.75;;;;;;;5.00;100.00;94377.13;5074545;28;20394;-75
2021/12/04 11:00:55;;;;;;;18.33;8.70;;;;;;;4.98;100.00;94363.66;5071410;28;20893;-76
2021/12/04 11:03:33;;;;;;;13.50;9.15;;;;;;;5.06;100.00;94381.47;5073585;28;20040;-76
2021/12/04 11:38:01;;;;;;;14.77;8.43;;;;;;;5.42;100.00;94343.09;5072892;28;20045;-73
2021/12/04 11:44:56;;;;;;;13.70;7.35;;;;;;;5.39;100.00;94349.50;5070644;28;20033;-75
2021/12/04 11:47:36;;;;;;;14.55;8.63;;;;;;;5.35;100.00;94358.66;5074103;28;20139;-74
2021/12/04 11:50:23;;;;;;;12.40;6.45;;;;;;;5.51;100.00;94358.13;5064943;28;20047;-74
2021/12/04 11:52:54;;;;;;;12.88;6.90;;;;;;;5.42;100.00;94359.41;5067638;28;20413;-74
2021/12/04 11:55:24;;;;;;;15.40;6.80;;;;;;;5.17;100.00;94336.91;5072432;28;21690;-74
2021/12/04 11:57:52;;;;;;;8.05;6.00;;;;;;;5.21;100.00;94359.75;5068820;28;20103;-74
2021/12/04 12:00:32;;;;;;;13.95;7.03;;;;;;;5.27;100.00;94361.50;5072030;28;20044;-74
2021/12/04 12:03:05;;;;;;;13.57;6.70;;;;;;;5.30;100.00;94376.56;5065407;28;20079;-73
2021/12/04 12:05:44;;;;;;;13.00;6.97;;;;;;;5.35;100.00;94369.00;5070111;28;20067;-73
2021/12/04 12:08:45;;;;;;;15.77;8.32;;;;;;;5.35;100.00;94371.56;5070439;28;20119;-73
2021/12/04 12:11:27;;;;;;;12.73;6.05;;;;;;;5.30;100.00;94368.81;5028248;28;20118;-73
2021/12/04 12:14:05;;;;;;;16.27;7.20;;;;;;;5.33;100.00;94361.44;5067815;28;20082;-74
2021/12/04 12:16:38;;;;;;;15.98;7.30;;;;;;;5.40;100.00;94361.38;5075393;28;20577;-75
2021/12/04 12:19:21;;;;;;;14.05;7.18;;;;;;;5.36;100.00;94340.34;5071454;28;20425;-74
2021/12/04 12:22:06;;;;;;;13.50;7.45;;;;;;;5.51;100.00;94357.34;5067424;28;20716;-73
2021/12/04 12:33:58;;;;;;;15.30;7.20;;;;;;;5.40;100.00;94368.34;5069067;28;20048;-73
2021/12/04 12:36:03;;;;;;;14.10;7.53;;;;;;;5.36;100.00;94339.56;5065742;28;20057;-74
2021/12/04 12:38:49;;;;;;;13.73;6.90;;;;;;;5.49;100.00;94365.31;5063536;28;20425;-72
2021/12/04 12:41:28;;;;;;;15.75;7.07;;;;;;;5.49;100.00;94365.31;5076162;28;20119;-74
2021/12/04 12:44:02;;;;;;;13.98;7.32;;;;;;;5.57;100.00;94366.06;5068299;28;20064;-73
2021/12/04 12:46:40;;;;;;;14.82;7.95;;;;;;;5.54;100.00;94365.44;5071752;28;20054;-73
2021/12/04 12:49:25;;;;;;;14.32;7.03;;;;;;;5.53;100.00;94365.69;5067588;28;20044;-73
2021/12/04 12:51:57;;;;;;;;;;;;;;;5.52;100.00;94364.88;5068201;28;20036;-73
2021/12/04 12:54:44;;;;;;;15.02;7.32;;;;;;;5.47;100.00;94367.28;5071095;28;19924;-72
2021/12/04 12:57:22;;;;;;;17.88;8.90;;;;;;;5.50;100.00;94366.88;5070702;28;20044;-71
2021/12/04 13:11:45;;;;;;;16.83;7.78;;;;;;;5.52;100.00;94380.38;5049407;28;20041;-73
2021/12/04 13:14:22;;;;;;;16.17;7.10;;;;;;;5.47;100.00;94387.16;5067167;28;20037;-72
2021/12/04 13:17:00;;;;;;;11.52;6.13;;;;;;;5.55;100.00;94379.97;5072187;28;20084;-74
2021/12/04 13:19:28;;;;;;;13.07;6.93;;;;;;;5.52;100.00;94377.78;5067651;28;20044;-72
2021/12/04 13:21:59;;;;;;;16.58;9.85;;;;;;;5.62;100.00;94379.91;5072702;28;20059;-73
2021/12/04 13:24:30;;;;;;;18.25;9.23;;;;;;;5.70;100.00;94376.28;5062177;28;20043;-74
2021/12/04 13:29:46;;;;;;;20.13;10.25;;;;;;;5.70;100.00;94376.28;5068302;28;20055;-75
2021/12/04 13:32:17;;;;;;;22.73;11.35;;;;;;;5.80;100.00;94380.94;5063456;28;20460;-73
2021/12/04 13:34:45;;;;;;;18.55;10.25;;;;;;;5.73;100.00;94375.88;5064745;28;20509;-73
2021/12/04 13:37:12;;;;;;;19.23;9.88;;;;;;;5.73;100.00;94378.44;5070036;28;20499;-74
2021/12/04 13:39:42;;;;;;;17.52;10.18;;;;;;;5.74;100.00;94369.66;5065880;28;20450;-74
2021/12/04 13:42:09;;;;;;;30.65;14.60;;;;;;;5.75;100.00;94373.84;5056317;28;20970;-74
2021/12/04 13:44:36;;;;;;;26.25;12.93;;;;;;;5.81;100.00;94367.03;5069048;28;20043;-74
2021/12/04 13:47:07;;;;;;;19.42;10.85;;;;;;;5.84;100.00;94367.41;5070746;28;20059;-73
2021/12/04 13:49:38;;;;;;;33.42;13.13;;;;;;;5.85;100.00;94363.84;5071213;28;20044;-73
2021/12/04 13:52:11;;;;;;;21.23;10.73;;;;;;;5.89;100.00;94364.97;5073693;28;20032;-74
2021/12/04 13:55:03;;;;;;;21.03;11.10;;;;;;;6.07;100.00;94371.22;5069261;28;20048;-74
2021/12/04 13:57:30;;;;;;;328.23;147.35;;;;;;;5.93;100.00;94355.78;5068098;28;20453;-74
2021/12/04 13:59:58;;;;;;;67.03;38.10;;;;;;;6.11;100.00;94367.19;5071007;28;20116;-74
2021/12/04 14:02:29;;;;;;;46.20;21.42;;;;;;;6.17;100.00;94363.75;5072970;28;20038;-74
2021/12/04 14:05:13;;;;;;;30.55;15.93;;;;;;;6.24;100.00;94351.53;5064307;28;20045;-74
2021/12/04 14:07:49;;;;;;;30.50;14.50;;;;;;;6.14;99.14;94335.75;5073935;28;20036;-74
2021/12/04 14:10:18;;;;;;;48.15;23.27;;;;;;;6.50;99.93;94357.44;5067400;28;20048;-74
2021/12/04 14:12:45;;;;;;;30.02;14.65;;;;;;;6.43;97.67;94343.78;5065722;28;20664;-74
2021/12/04 14:15:17;;;;;;;22.08;12.30;;;;;;;6.52;99.17;94355.44;5070538;28;20040;-74
2021/12/04 14:17:45;;;;;;;29.17;13.38;;;;;;;6.66;97.32;94364.63;5069084;28;20528;-74
2021/12/04 14:20:18;;;;;;;23.67;12.20;;;;;;;6.62;96.66;94358.28;5069347;28;20040;-74
2021/12/04 14:22:48;;;;;;;17.55;8.90;;;;;;;6.63;96.38;94353.91;5071536;28;20592;-73
2021/12/04 14:25:16;;;;;;;18.35;9.80;;;;;;;6.49;96.32;94359.22;5071161;28;20052;-74
2021/12/04 14:27:44;;;;;;;15.18;8.10;;;;;;;6.49;96.27;94359.22;5074711;28;20480;-74
2021/12/04 14:30:13;;;;;;;13.65;7.75;;;;;;;6.34;98.09;94337.31;5074394;28;20044;-74
2021/12/04 14:32:43;;;;;;;12.75;7.55;;;;;;;6.51;99.05;94361.59;5073569;28;20780;-74
2021/12/04 14:35:16;;;;;;;14.65;7.90;;;;;;;6.62;98.58;94360.88;5070435;28;20050;-74
2021/12/04 14:37:47;;;;;;;19.05;9.50;;;;;;;6.80;96.47;94360.06;5070999;28;20040;-74
2021/12/04 14:40:42;;;;;;;22.00;11.52;;;;;;;6.76;96.45;94364.09;5067375;28;20048;-74
2021/12/04 14:43:14;;;;;;;24.17;13.65;;;;;;;6.65;96.44;94362.25;5073790;28;20036;-75
2021/12/04 14:45:44;;;;;;;30.67;13.88;;;;;;;6.85;94.53;94362.00;5073264;28;20048;-74
2021/12/04 14:48:16;;;;;;;31.98;13.73;;;;;;;6.85;93.80;94367.16;5071282;28;20041;-74
2021/12/04 14:50:50;;;;;;;35.72;17.77;;;;;;;6.47;95.95;94365.63;5069471;28;20516;-74
2021/12/04 14:53:19;;;;;;;22.83;10.98;;;;;;;6.42;95.66;94362.91;5070091;28;20044;-74
2021/12/04 14:55:49;;;;;;;24.48;12.75;;;;;;;6.66;97.29;94374.97;5071684;28;20119;-74